Latest Weather Observations for Cummins Airport

IDS60801

Issued at 7:05 pm CST Friday 19 September 2014 (issued every 30 minutes, with the page automatically refreshed every 10 minutes)

About weather observations | Map of weather stations | Latest weather observations for SA | Other Formats
Station Details ID: 018217 Name: CUMMINS AERO Lat: -34.25 Lon: 135.71 Height: 60.11 m
Data from the previous 72 hours. | See also: Recent months at Cummins Airport
Date/Time
CST
Temp
°C
App
Temp
°C
Dew
Point
Rel
Hum
%
Delta-T
°C
Wind Press
QNH
hPa
Press
MSL
hPa
Rain
since 9 am
mm
Dir
 
Spd
km/h
Gust
km/h
Spd
kts
Gust
kts
19/07:00pm 10.8 8.5 7.3 79 1.7 ESE 9 11 5 6 1022.4 1022.4 0.0
19/06:30pm 11.9 9.1 7.0 72 2.3 SE 11 13 6 7 1022.3 1022.3 0.0
19/06:00pm 13.6 10.5 7.4 66 3.0 SE 13 17 7 9 1022.2 1022.2 0.0
19/05:30pm 14.6 10.8 7.4 62 3.5 ESE 17 20 9 11 1021.7 1021.7 0.0
19/05:00pm 16.0 12.3 8.0 59 4.0 ESE 17 24 9 13 1021.2 1021.2 0.0
19/04:30pm 18.1 14.6 8.9 55 4.8 ESE 17 22 9 12 1020.9 1020.9 0.0
19/04:00pm 20.5 17.8 5.7 38 7.4 WNW 9 15 5 8 1020.7 1020.7 0.0
19/03:30pm 20.9 19.3 6.4 39 7.3 N 4 7 2 4 1020.8 1020.8 0.0
19/03:00pm 19.9 17.6 5.9 40 6.9 N 7 13 4 7 1021.1 1021.1 0.0
19/02:30pm 20.2 17.5 5.8 39 7.1 N 9 15 5 8 1021.5 1021.5 0.0
19/02:00pm 20.2 18.2 6.9 42 6.8 ENE 7 15 4 8 1021.7 1021.7 0.0
19/01:30pm 19.6 17.6 6.3 42 6.6 NE 6 11 3 6 1022.1 1022.1 0.0
19/01:00pm 18.7 16.0 5.5 42 6.5 NNW 9 19 5 10 1022.8 1022.8 0.0
19/12:30pm 18.0 14.1 5.2 43 6.2 E 15 26 8 14 1023.1 1023.1 0.0
19/12:00pm 17.9 15.0 6.4 47 5.7 NNE 11 19 6 10 1023.5 1023.5 0.0
19/11:30am 16.0 12.2 5.9 51 4.9 NE 15 30 8 16 1024.0 1024.0 0.0
19/11:00am 16.8 13.3 7.2 53 4.8 ENE 15 24 8 13 1024.2 1024.2 0.0
19/10:30am 16.1 11.7 7.3 56 4.4 E 20 30 11 16 1024.5 1024.5 0.0
19/10:00am 15.4 11.4 8.4 63 3.5 E 19 28 10 15 1024.7 1024.7 0.0
19/09:30am 14.6 10.7 8.8 68 2.9 E 19 26 10 14 1024.9 1024.9 0.0
19/09:00am 13.6 9.7 9.6 77 2.0 E 20 32 11 17 1025.2 1025.2 0.0
19/08:30am 12.7 10.8 10.4 86 1.2 E 11 17 6 9 1025.2 1025.2 0.0
19/08:00am 10.8 9.2 10.3 97 0.3 E 9 11 5 6 1025.0 1025.0 0.0
19/07:30am 8.0 5.5 8.0 100 0.0 ESE 11 11 6 6 1025.0 1025.0 0.0
19/07:27am 7.0 4.2 7.0 100 0.0 ESE 11 11 6 6 1025.0 1025.0 0.0
19/07:00am 1.8 -1.6 1.8 100 0.0 SE 9 9 5 5 1025.0 1025.0 0.0
19/06:30am 1.5 -2.0 1.5 100 0.0 SSE 9 11 5 6 1024.6 1024.6 0.0
19/06:00am 1.7 -1.7 1.7 100 0.0 SSE 9 11 5 6 1024.3 1024.3 0.0
19/05:30am 3.0 0.7 3.0 100 0.0 E 4 7 2 4 1024.1 1024.1 0.0
19/05:00am 3.8 1.1 3.8 100 0.0 ESE 7 11 4 6 1023.9 1023.9 0.0
19/04:30am 3.9 1.4 3.9 100 0.0 SSE 6 9 3 5 1023.9 1023.9 0.0
19/04:00am 3.6 2.2 3.6 100 0.0 CALM 0 0 0 0 1023.8 1023.8 0.0
19/03:30am 4.8 3.6 4.8 100 0.0 CALM 0 0 0 0 1023.7 1023.7 0.0
19/03:00am 4.0 1.9 4.0 100 0.0 SW 4 9 2 5 1023.7 1023.7 0.0
19/02:30am 4.5 2.1 4.5 100 0.0 S 6 7 3 4 1023.8 1023.8 0.0
19/02:00am 5.9 3.6 5.9 100 0.0 SE 7 11 4 6 1024.1 1024.1 0.0
19/01:30am 6.0 5.1 6.0 100 0.0 CALM 0 0 0 0 1024.3 1024.3 0.0
19/01:00am 5.5 2.8 5.5 100 0.0 SE 9 15 5 8 1024.4 1024.4 0.0
19/12:30am 4.7 1.8 4.7 100 0.0 SSE 9 13 5 7 1025.0 1025.0 0.0
19/12:00am 4.6 2.6 4.6 100 0.0 SE 4 7 2 4 1025.2 1025.2 0.0
 
Date/Time
CST
Temp
°C
App
Temp
°C
Dew
Point
Rel
Hum
%
Delta-T
°C
Wind Press
QNH
hPa
Press
MSL
hPa
Rain
since 9 am
mm
Dir
 
Spd
km/h
Gust
km/h
Spd
kts
Gust
kts
18/11:30pm 5.0 3.9 5.0 100 0.0 CALM 0 2 0 1 1025.5 1025.5 0.0
18/11:00pm 4.4 1.9 4.0 97 0.2 E 6 7 3 4 1025.4 1025.4 0.0
18/10:30pm 6.6 4.4 6.2 97 0.2 ESE 7 9 4 5 1025.8 1025.9 0.0
18/10:00pm 7.3 3.7 6.9 97 0.2 SE 15 17 8 9 1025.8 1025.9 0.0
18/09:30pm 8.0 3.7 7.2 95 0.4 SE 19 20 10 11 1025.9 1026.0 0.0
18/09:00pm 7.0 4.0 6.1 94 0.4 SE 11 17 6 9 1025.8 1025.9 0.0
18/08:30pm 7.6 5.1 6.5 93 0.5 SE 9 11 5 6 1025.7 1025.8 0.0
18/08:00pm 6.6 5.6 5.4 92 0.5 CALM 0 0 0 0 1025.7 1025.8 0.0
18/07:30pm 6.6 5.5 5.1 90 0.7 CALM 0 0 0 0 1025.7 1025.8 0.0
18/07:00pm 9.0 6.4 6.3 83 1.2 S 9 11 5 6 1025.4 1025.4 0.0
18/06:30pm 10.4 7.5 6.4 76 1.9 SSE 11 15 6 8 1025.2 1025.2 0.0
18/06:00pm 11.2 7.9 6.3 72 2.3 SSE 13 19 7 10 1025.1 1025.1 0.0
18/05:30pm 12.3 7.9 6.4 67 2.8 SSE 19 24 10 13 1024.9 1024.9 0.0
18/05:00pm 13.2 8.6 6.3 63 3.3 SE 20 26 11 14 1024.5 1024.5 0.0
18/04:30pm 13.8 9.1 6.2 60 3.6 SSE 20 26 11 14 1024.4 1024.4 0.0
18/04:00pm 14.7 10.7 6.8 59 3.9 ESE 17 22 9 12 1024.4 1024.4 0.0
18/03:30pm 14.5 10.3 5.6 55 4.2 SE 17 24 9 13 1024.5 1024.5 0.0
18/03:00pm 14.7 11.1 5.0 52 4.5 SE 13 19 7 10 1024.3 1024.3 0.0
18/02:30pm 14.5 10.2 5.3 54 4.3 SE 17 22 9 12 1024.6 1024.6 0.0
18/02:00pm 14.8 10.5 5.1 52 4.6 SSE 17 24 9 13 1024.8 1024.8 0.0
18/01:30pm 15.2 12.0 3.0 44 5.5 S 9 11 5 6 1025.0 1025.0 0.0
18/01:00pm 15.1 12.4 3.6 46 5.3 SE 7 11 4 6 1025.3 1025.3 0.0
18/12:30pm 14.9 11.6 4.3 49 4.9 SSE 11 20 6 11 1025.6 1025.7 0.0
18/12:00pm 15.7 13.1 4.4 47 5.3 E 7 15 4 8 1026.0 1026.1 0.0
18/11:30am 14.7 11.7 4.1 49 4.9 SE 9 13 5 7 1026.3 1026.4 0.0
18/11:00am 13.7 10.1 4.8 55 4.1 ESE 13 20 7 11 1026.3 1026.4 0.0
18/10:30am 13.1 9.6 5.3 59 3.6 SE 13 17 7 9 1026.4 1026.5 0.0
18/10:00am 13.1 9.8 6.2 63 3.3 SSE 13 17 7 9 1026.7 1026.8 0.0
18/09:30am 13.0 12.1 7.9 71 2.5 N 2 9 1 5 1026.8 1026.9 0.0
18/09:00am 9.5 9.0 7.8 89 0.8 CALM 0 0 0 0 1027.1 1027.2 0.0
18/08:30am 6.4 5.6 6.4 100 0.0 CALM 0 0 0 0 1027.1 1027.2 0.0
18/08:00am 4.7 3.5 4.7 100 0.0 CALM 0 0 0 0 1027.1 1027.2 0.0
18/07:30am 2.8 1.3 2.8 100 0.0 CALM 0 0 0 0 1026.8 1026.9 0.0
18/07:00am 2.1 0.4 2.1 100 0.0 CALM 0 0 0 0 1026.5 1026.6 0.0
18/06:30am 1.3 -1.2 1.3 100 0.0 E 4 7 2 4 1026.4 1026.5 0.0
18/06:00am 1.8 -1.0 1.8 100 0.0 NNW 6 7 3 4 1026.1 1026.2 0.0
18/05:30am 1.4 -1.5 1.4 100 0.0 NNE 6 7 3 4 1025.6 1025.7 0.0
18/05:00am 1.1 -2.4 1.1 100 0.0 NNE 9 11 5 6 1025.3 1025.3 0.0
18/04:30am 0.6 -2.4 0.6 100 0.0 E 6 7 3 4 1025.1 1025.1 0.0
18/04:00am 0.8 -2.2 0.8 100 0.0 ESE 6 7 3 4 1025.2 1025.2 0.0
18/03:30am 1.2 -0.6 1.2 100 0.0 CALM 0 0 0 0 1025.3 1025.3 0.0
18/03:00am 1.4 -0.4 1.4 100 0.0 CALM 0 0 0 0 1025.3 1025.3 0.0
18/02:30am 1.1 -1.1 1.1 100 0.0 S 2 6 1 3 1025.3 1025.3 0.0
18/02:00am 1.5 -1.6 1.5 100 0.0 S 7 9 4 5 1025.5 1025.5 0.0
18/01:30am 2.3 -0.7 2.3 100 0.0 SW 7 11 4 6 1025.6 1025.7 0.0
18/01:00am 1.7 -0.8 1.7 100 0.0 W 4 9 2 5 1025.9 1026.0 0.0
18/12:30am 2.4 0.8 2.4 100 0.0 CALM 0 0 0 0 1025.7 1025.8 0.0
18/12:00am 2.6 1.0 2.6 100 0.0 CALM 0 0 0 0 1025.9 1026.0 0.0
 
Date/Time
CST
Temp
°C
App
Temp
°C
Dew
Point
Rel
Hum
%
Delta-T
°C
Wind Press
QNH
hPa
Press
MSL
hPa
Rain
since 9 am
mm
Dir
 
Spd
km/h
Gust
km/h
Spd
kts
Gust
kts
17/11:30pm 3.1 0.9 3.1 100 0.0 SE 4 6 2 3 1026.3 1026.4 0.0
17/11:00pm 2.6 -0.1 2.6 100 0.0 E 6 7 3 4 1026.3 1026.4 0.0
17/10:30pm 3.4 0.6 3.4 100 0.0 SE 7 7 4 4 1026.2 1026.3 0.0
17/10:00pm 4.6 3.4 4.5 99 0.0 CALM 0 0 0 0 1026.6 1026.7 0.0
17/09:30pm 4.8 1.8 4.2 96 0.3 S 9 11 5 6 1026.1 1026.2 0.0
17/09:00pm 5.5 2.6 4.8 95 0.3 S 9 11 5 6 1025.8 1025.9 0.0
17/08:30pm 6.4 3.5 4.9 90 0.7 S 9 11 5 6 1025.5 1025.5 0.0
17/08:00pm 7.9 5.2 5.7 86 1.0 SSE 9 11 5 6 1025.2 1025.2 0.0
17/07:30pm 9.7 6.7 6.1 78 1.7 S 11 13 6 7 1024.9 1024.9 0.0
17/07:00pm 11.5 8.2 6.4 71 2.4 SSE 13 17 7 9 1024.6 1024.6 0.0
17/06:30pm 11.9 8.6 6.4 69 2.6 S 13 15 7 8 1024.4 1024.4 0.0
17/06:00pm 13.0 10.3 7.2 68 2.8 SSE 11 15 6 8 1024.1 1024.1 0.0
17/05:30pm 13.4 9.4 6.7 64 3.2 SSE 17 22 9 12 1023.9 1023.9 0.0
17/05:00pm 14.0 10.0 6.8 62 3.5 SSE 17 20 9 11 1023.4 1023.4 0.0
17/04:30pm 14.6 11.3 7.9 64 3.3 SSE 15 19 8 10 1023.1 1023.1 0.0
17/04:00pm 14.9 12.3 7.7 62 3.6 S 11 17 6 9 1023.0 1023.0 0.0
17/03:30pm 15.1 11.9 8.3 64 3.4 SE 15 20 8 11 1022.8 1022.8 0.0
17/03:00pm 15.3 11.3 8.3 63 3.5 ESE 19 22 10 12 1022.8 1022.8 0.0
17/02:30pm 15.9 14.3 7.9 59 4.0 SSE 6 17 3 9 1022.8 1022.8 0.0
17/02:00pm 15.1 13.7 8.8 66 3.2 NNE 6 9 3 5 1022.9 1022.9 0.0
17/01:30pm 15.0 12.9 8.3 64 3.4 S 9 13 5 7 1023.0 1023.0 0.0
17/01:00pm 15.7 13.1 7.7 59 4.0 SSE 11 17 6 9 1023.0 1023.0 0.0
17/12:30pm 16.5 13.1 9.0 61 3.9 S 17 26 9 14 1023.0 1023.0 0.0
17/12:00pm 15.7 13.2 8.0 60 3.9 SSE 11 20 6 11 1023.3 1023.3 0.0
17/11:30am 15.1 10.5 8.1 63 3.5 S 22 28 12 15 1023.6 1023.6 0.0
17/11:00am 14.9 11.9 7.5 61 3.7 WSW 13 17 7 9 1023.6 1023.6 0.0
17/10:30am 13.5 10.3 9.9 79 1.8 SW 17 22 9 12 1023.6 1023.6 0.0
17/10:00am 14.8 12.1 9.0 68 3.0 S 13 20 7 11 1023.7 1023.7 0.0
17/09:30am 12.9 12.0 9.2 78 1.9 WSW 4 9 2 5 1023.7 1023.7 0.0
17/09:00am 11.7 11.9 10.4 92 0.7 CALM 0 0 0 0 1023.5 1023.5 -
17/08:30am 10.3 10.4 10.3 100 0.0 CALM 0 0 0 0 1023.3 1023.3 -
17/08:00am 7.7 7.2 7.7 100 0.0 CALM 0 0 0 0 1023.0 1023.0 -
17/07:30am 5.2 4.1 5.2 100 0.0 CALM 0 0 0 0 1022.6 1022.6 -
17/07:00am 3.1 0.3 3.1 100 0.0 NNE 7 9 4 5 1022.2 1022.2 -
17/06:30am 1.6 -0.1 1.6 100 0.0 CALM 0 0 0 0 1021.8 1021.8 -
17/06:00am 1.9 -0.2 1.9 100 0.0 N 2 7 1 4 1021.5 1021.5 -
17/05:30am 2.1 -1.3 2.1 100 0.0 N 9 9 5 5 1021.2 1021.2 -
17/05:00am 2.1 -0.9 2.1 100 0.0 ENE 7 9 4 5 1021.0 1021.0 -
17/04:30am 2.1 -0.9 2.1 100 0.0 NE 7 9 4 5 1020.8 1020.8 -
17/04:00am 2.5 -0.2 2.5 100 0.0 NE 6 7 3 4 1020.6 1020.6 -
17/03:30am 2.7 0.0 2.7 100 0.0 NNE 6 7 3 4 1020.6 1020.6 -
17/03:00am 3.1 0.5 3.1 100 0.0 E 6 7 3 4 1020.5 1020.5 0.0
17/02:30am 3.8 2.4 3.8 100 0.0 CALM 0 0 0 0 1020.7 1020.7 -
17/02:00am 4.4 3.2 4.4 100 0.0 CALM 0 0 0 0 1020.7 1020.7 -
17/01:30am 4.8 3.6 4.8 100 0.0 CALM 0 0 0 0 1020.8 1020.8 -
17/01:00am 6.1 5.2 6.1 100 0.0 CALM 0 0 0 0 1020.9 1020.9 -
17/12:30am 6.7 5.9 6.7 100 0.0 CALM 0 0 0 0 1021.2 1021.2 -
17/12:00am 7.4 5.1 7.4 100 0.0 WSW 9 11 5 6 1021.3 1021.3 -
 
Date/Time
CST
Temp
°C
App
Temp
°C
Dew
Point
Rel
Hum
%
Delta-T
°C
Wind Press
QNH
hPa
Press
MSL
hPa
Rain
since 9 am
mm
Dir
 
Spd
km/h
Gust
km/h
Spd
kts
Gust
kts
16/11:30pm 7.8 6.5 7.8 100 0.0 WSW 4 6 2 3 1021.4 1021.4 -
16/11:00pm 8.2 7.4 8.2 100 0.0 W 2 7 1 4 1021.4 1021.4 -
16/10:30pm 8.8 6.4 8.7 99 0.0 SSW 11 15 6 8 1021.5 1021.5 -
16/10:00pm 8.0 5.8 8.0 100 0.0 SW 9 11 5 6 1021.5 1021.5 -
16/09:30pm 8.8 6.4 8.8 100 0.0 WSW 11 13 6 7 1021.3 1021.3 -
16/09:00pm 8.8 5.9 8.2 96 0.3 W 13 15 7 8 1021.2 1021.2 0.2
16/08:30pm 9.9 7.4 9.6 98 0.1 W 13 15 7 8 1020.9 1020.9 -
16/08:00pm 9.4 7.3 8.3 93 0.5 W 9 11 5 6 1020.9 1020.9 -
16/07:30pm 11.5 9.5 8.7 83 1.4 WSW 9 15 5 8 1020.5 1020.5 -

Other Formats:

Comma delimited format used in spreadsheet applications
http://www.bom.gov.au/fwo/IDS60801/IDS60801.95663.axf

JavaScript Object Notation format (JSON) in row-major order
http://www.bom.gov.au/fwo/IDS60801/IDS60801.95663.json